createdAt,value
2018-06-08T00:01:01.009Z,61.80
2018-06-08T00:03:29.913Z,61.60
2018-06-08T00:05:58.849Z,62.50
2018-06-08T00:08:28.977Z,62.40
2018-06-08T00:10:57.870Z,62.40
2018-06-08T00:13:26.953Z,62.80
2018-06-08T00:15:56.070Z,62.90
2018-06-08T00:18:25.030Z,63.40
2018-06-08T00:20:54.123Z,63.50
2018-06-08T00:23:23.136Z,63.70
2018-06-08T00:25:52.178Z,63.20
2018-06-08T00:28:21.293Z,63.10
2018-06-08T00:30:50.663Z,63.30
2018-06-08T00:33:19.742Z,64.00
2018-06-08T00:35:49.073Z,63.30
2018-06-08T00:38:18.075Z,63.70
2018-06-08T00:40:47.018Z,64.00
2018-06-08T00:43:15.893Z,64.40
2018-06-08T00:45:44.748Z,63.70
2018-06-08T00:48:13.613Z,64.20
2018-06-08T00:50:42.477Z,64.20
2018-06-08T00:53:11.371Z,64.80
2018-06-08T00:55:40.237Z,64.90
2018-06-08T00:58:09.111Z,65.10
2018-06-08T01:00:38.041Z,65.20
2018-06-08T01:03:07.532Z,65.50
2018-06-08T01:05:36.413Z,65.20
2018-06-08T01:08:05.291Z,65.20
2018-06-08T01:10:34.184Z,65.90
2018-06-08T01:13:03.058Z,66.10
2018-06-08T01:15:31.897Z,66.40
2018-06-08T01:18:00.751Z,66.30
2018-06-08T01:20:29.653Z,66.00
2018-06-08T01:22:58.570Z,66.60
2018-06-08T01:25:27.480Z,66.90
2018-06-08T01:27:56.474Z,66.90
2018-06-08T01:30:25.428Z,67.30
2018-06-08T01:32:54.507Z,67.00
2018-06-08T01:35:23.459Z,67.30
2018-06-08T01:37:52.464Z,66.90
2018-06-08T01:40:21.504Z,67.20
2018-06-08T01:42:50.490Z,67.70
2018-06-08T01:45:20.128Z,67.30
2018-06-08T01:47:49.145Z,67.40
2018-06-08T01:50:18.107Z,67.70
2018-06-08T01:52:47.121Z,67.40
2018-06-08T01:55:15.987Z,68.00
2018-06-08T01:57:44.911Z,67.60
2018-06-08T02:00:13.780Z,67.30
2018-06-08T02:02:42.682Z,74.10
2018-06-08T02:05:11.530Z,68.00
2018-06-08T02:07:40.360Z,68.10
2018-06-08T02:10:09.232Z,68.20
2018-06-08T02:12:38.092Z,68.00
2018-06-08T02:15:06.984Z,68.10
2018-06-08T02:17:35.866Z,68.00
2018-06-08T02:20:04.758Z,68.70
2018-06-08T02:22:33.589Z,68.60
2018-06-08T02:25:02.451Z,68.90
2018-06-08T02:27:31.397Z,69.60
2018-06-08T02:30:00.236Z,68.90
2018-06-08T02:32:29.105Z,69.00
2018-06-08T02:34:58.104Z,69.20
2018-06-08T02:37:27.082Z,69.00
2018-06-08T02:39:56.059Z,69.10
2018-06-08T02:44:53.618Z,69.80
2018-06-08T02:47:22.571Z,68.90
2018-06-08T02:49:51.738Z,69.00
2018-06-08T02:52:20.754Z,69.10
2018-06-08T02:54:49.852Z,69.50
2018-06-08T02:57:18.997Z,69.50
2018-06-08T02:59:47.986Z,69.60
2018-06-08T03:02:16.892Z,69.10
2018-06-08T03:04:45.743Z,69.60
2018-06-08T03:07:14.592Z,69.90
2018-06-08T03:09:43.472Z,69.70
2018-06-08T03:12:12.392Z,69.80
2018-06-08T03:14:41.264Z,70.10
2018-06-08T03:17:10.129Z,70.00
2018-06-08T03:19:39.064Z,70.40
2018-06-08T03:22:08.022Z,70.50
2018-06-08T03:24:36.946Z,70.30
2018-06-08T03:27:05.815Z,70.10
2018-06-08T03:29:34.679Z,70.20
2018-06-08T03:32:03.523Z,70.20
2018-06-08T03:37:00.968Z,69.70
2018-06-08T03:39:29.865Z,69.90
2018-06-08T03:41:58.746Z,70.10
2018-06-08T03:44:27.850Z,69.90
2018-06-08T03:46:56.864Z,69.70
2018-06-08T03:49:25.908Z,70.10
2018-06-08T03:51:54.925Z,70.50
2018-06-08T03:54:23.993Z,70.10
2018-06-08T03:56:53.017Z,70.10
2018-06-08T03:59:21.999Z,70.30
2018-06-08T04:01:51.114Z,70.20
2018-06-08T04:04:20.314Z,70.50
2018-06-08T04:06:49.447Z,70.60
2018-06-08T04:09:18.887Z,70.60
2018-06-08T04:11:48.052Z,70.70
2018-06-08T04:14:17.346Z,70.70
2018-06-08T04:16:46.275Z,71.60
2018-06-08T04:19:15.112Z,70.70
2018-06-08T04:21:44.022Z,71.10
2018-06-08T04:24:13.009Z,71.20
2018-06-08T04:26:41.945Z,71.20
2018-06-08T04:29:11.613Z,71.30
2018-06-08T04:31:40.486Z,70.90
2018-06-08T04:34:09.472Z,71.10
2018-06-08T04:36:38.648Z,71.40
2018-06-08T04:39:08.372Z,71.40
2018-06-08T04:41:37.261Z,71.20
2018-06-08T04:44:06.113Z,71.30
2018-06-08T04:46:35.106Z,71.60
2018-06-08T04:49:04.084Z,71.60
2018-06-08T04:51:33.103Z,71.20
2018-06-08T04:54:01.948Z,71.60
2018-06-08T04:56:30.785Z,71.30
2018-06-08T04:58:59.668Z,71.30
2018-06-08T05:01:28.550Z,71.10
2018-06-08T05:03:57.502Z,70.70
2018-06-08T05:06:26.639Z,70.50
2018-06-08T05:08:55.656Z,70.50
2018-06-08T05:11:24.883Z,70.70
2018-06-08T05:13:54.617Z,70.60
2018-06-08T05:16:24.083Z,70.90
2018-06-08T05:18:53.297Z,71.40
2018-06-08T05:21:22.231Z,70.90
2018-06-08T05:23:51.454Z,71.10
2018-06-08T05:26:20.573Z,70.70
2018-06-08T05:28:49.997Z,71.00
2018-06-08T05:31:19.018Z,70.80
2018-06-08T05:33:47.973Z,71.20
2018-06-08T05:36:17.021Z,71.10
2018-06-08T05:38:45.905Z,71.00
2018-06-08T05:41:14.892Z,70.80
2018-06-08T05:43:43.796Z,71.50
2018-06-08T05:46:12.652Z,71.40
2018-06-08T05:48:41.517Z,71.70
2018-06-08T05:51:10.377Z,72.30
2018-06-08T05:53:39.252Z,71.90
2018-06-08T05:56:08.166Z,72.80
2018-06-08T05:58:37.056Z,71.80
2018-06-08T06:01:06.135Z,71.50
2018-06-08T06:03:34.960Z,71.30
2018-06-08T06:06:03.945Z,70.80
2018-06-08T06:08:32.843Z,71.70
2018-06-08T06:11:01.826Z,70.90
2018-06-08T06:13:30.717Z,71.50
2018-06-08T06:15:59.629Z,71.10
2018-06-08T06:18:28.825Z,70.50
2018-06-08T06:20:57.826Z,70.90
2018-06-08T06:23:26.797Z,71.20
2018-06-08T06:25:55.887Z,70.90
2018-06-08T06:28:24.991Z,69.50
2018-06-08T06:30:54.094Z,70.10
2018-06-08T06:33:23.289Z,71.70
2018-06-08T06:35:52.377Z,72.60
2018-06-08T06:38:21.520Z,72.80
2018-06-08T06:40:51.001Z,74.80
2018-06-08T06:43:20.379Z,71.10
2018-06-08T06:45:49.467Z,71.60
2018-06-08T06:48:18.594Z,70.40
2018-06-08T06:50:47.680Z,73.30
2018-06-08T06:53:16.689Z,71.60
2018-06-08T06:55:45.486Z,72.80
2018-06-08T06:58:14.351Z,72.60
2018-06-08T07:00:43.213Z,71.40
2018-06-08T07:03:12.052Z,71.20
2018-06-08T07:05:40.921Z,71.90
2018-06-08T07:08:09.793Z,71.50
2018-06-08T07:13:07.253Z,73.50
2018-06-08T07:15:36.200Z,76.10
2018-06-08T07:20:33.681Z,76.50
2018-06-08T07:23:02.573Z,74.70
2018-06-08T07:25:31.456Z,75.90
2018-06-08T07:28:00.328Z,68.60
2018-06-08T07:30:29.369Z,69.30
2018-06-08T07:32:58.357Z,69.90
2018-06-08T07:35:27.706Z,76.20
2018-06-08T07:37:56.796Z,75.20
2018-06-08T07:40:25.774Z,74.30
2018-06-08T07:42:54.986Z,77.50
2018-06-08T07:45:24.052Z,77.60
2018-06-08T07:47:52.948Z,74.10
2018-06-08T07:50:21.957Z,77.40
2018-06-08T07:52:51.061Z,74.10
2018-06-08T07:55:20.109Z,69.00
2018-06-08T07:57:49.351Z,73.60
2018-06-08T08:00:18.400Z,73.50
2018-06-08T08:02:47.436Z,76.80
2018-06-08T08:05:16.329Z,77.30
2018-06-08T08:07:45.192Z,74.50
2018-06-08T08:10:14.047Z,76.40
2018-06-08T08:12:44.019Z,74.60
2018-06-08T08:15:12.965Z,77.50
2018-06-08T08:17:42.089Z,75.90
2018-06-08T08:20:10.997Z,77.50
2018-06-08T08:22:39.855Z,74.70
2018-06-08T08:25:08.734Z,77.80
2018-06-08T08:27:37.609Z,76.70
2018-06-08T08:30:06.513Z,77.50
2018-06-08T08:32:35.432Z,78.00
2018-06-08T08:35:04.288Z,78.30
2018-06-08T08:37:33.330Z,79.20
2018-06-08T08:40:02.379Z,77.00
2018-06-08T08:42:31.245Z,71.70
2018-06-08T08:45:00.289Z,74.00
2018-06-08T08:47:29.372Z,77.20
2018-06-08T08:49:58.452Z,77.60
2018-06-08T08:52:27.447Z,70.30
2018-06-08T08:54:56.498Z,73.80
2018-06-08T08:57:25.820Z,76.30
2018-06-08T08:59:54.882Z,78.00
2018-06-08T09:02:23.945Z,78.90
2018-06-08T09:04:53.104Z,79.30
2018-06-08T09:07:22.304Z,79.20
2018-06-08T09:09:51.437Z,78.80
2018-06-08T09:12:20.620Z,78.00
2018-06-08T09:14:49.933Z,75.70
2018-06-08T09:17:19.634Z,77.40
2018-06-08T09:19:49.166Z,77.80
2018-06-08T09:22:18.202Z,78.70
2018-06-08T09:24:47.152Z,77.80
2018-06-08T09:27:16.007Z,78.70
2018-06-08T09:29:44.869Z,79.30
2018-06-08T09:32:13.773Z,79.10
2018-06-08T09:34:42.654Z,79.50
2018-06-08T09:37:11.572Z,71.10
2018-06-08T09:39:40.454Z,66.20
2018-06-08T09:42:14.905Z,71.20
2018-06-08T09:44:43.763Z,76.70
2018-06-08T09:47:12.738Z,78.00
2018-06-08T09:49:41.646Z,78.30
2018-06-08T09:52:10.664Z,73.60
2018-06-08T09:54:39.609Z,78.50
2018-06-08T09:57:09.513Z,78.40
2018-06-08T09:59:39.474Z,78.50
2018-06-08T10:02:08.377Z,67.50
2018-06-08T10:04:37.313Z,76.20
2018-06-08T10:07:06.182Z,76.70
2018-06-08T10:09:35.041Z,78.60
2018-06-08T10:12:04.011Z,70.80
2018-06-08T10:14:34.123Z,75.30
2018-06-08T10:17:03.118Z,69.00
2018-06-08T10:19:33.582Z,75.20
2018-06-08T10:22:02.635Z,76.80
2018-06-08T10:24:31.525Z,77.40
2018-06-08T10:27:00.508Z,76.50
2018-06-08T10:29:29.431Z,78.50
2018-06-08T10:31:58.492Z,75.70
2018-06-08T10:34:27.733Z,73.20
2018-06-08T10:36:56.814Z,71.40
2018-06-08T10:39:25.835Z,74.20
2018-06-08T10:41:54.931Z,71.30
2018-06-08T10:44:23.934Z,68.80
2018-06-08T10:46:53.026Z,68.40
2018-06-08T10:49:22.259Z,61.70
2018-06-08T10:51:51.475Z,68.50
2018-06-08T10:54:20.594Z,61.50
2018-06-08T10:56:50.490Z,73.90
2018-06-08T10:59:19.677Z,76.30
2018-06-08T11:01:49.706Z,76.70
2018-06-08T11:04:18.742Z,78.40
2018-06-08T11:06:48.868Z,74.60
2018-06-08T11:09:17.815Z,78.80
2018-06-08T11:11:48.243Z,75.20
2018-06-08T11:14:17.317Z,76.10
2018-06-08T11:16:46.400Z,75.40
2018-06-08T11:19:15.341Z,78.20
2018-06-08T11:21:44.406Z,79.30
2018-06-08T11:24:13.438Z,80.30
2018-06-08T11:26:42.368Z,80.30
2018-06-08T11:29:11.284Z,80.70
2018-06-08T11:31:40.122Z,77.80
2018-06-08T11:34:09.073Z,69.00
2018-06-08T11:36:37.964Z,60.70
2018-06-08T11:39:08.038Z,65.40
2018-06-08T11:41:37.101Z,65.10
2018-06-08T11:44:06.034Z,68.40
2018-06-08T11:46:35.141Z,67.20
2018-06-08T11:49:04.058Z,70.80
2018-06-08T11:51:32.945Z,73.50
2018-06-08T11:54:01.927Z,67.60
2018-06-08T11:56:30.894Z,69.00
2018-06-08T11:58:59.790Z,70.00
2018-06-08T12:03:57.192Z,70.30
2018-06-08T12:08:54.653Z,71.70
2018-06-08T12:11:23.597Z,70.90
2018-06-08T12:13:52.508Z,76.10
2018-06-08T12:16:21.352Z,75.40
2018-06-08T12:18:50.763Z,75.10
2018-06-08T12:21:19.644Z,72.10
2018-06-08T12:23:48.736Z,70.40
2018-06-08T12:26:18.298Z,68.70
2018-06-08T12:28:47.460Z,73.30
2018-06-08T12:31:16.519Z,78.50
2018-06-08T12:33:45.558Z,79.40
2018-06-08T12:36:14.666Z,75.00
2018-06-08T12:38:43.870Z,69.50
2018-06-08T12:41:13.003Z,78.10
2018-06-08T12:43:42.073Z,77.40
2018-06-08T12:46:11.229Z,69.20
2018-06-08T12:48:40.199Z,79.50
2018-06-08T12:51:09.314Z,81.00
2018-06-08T12:53:38.179Z,80.60
2018-06-08T12:56:07.077Z,80.60
2018-06-08T12:58:35.986Z,81.30
2018-06-08T13:01:04.921Z,82.10
2018-06-08T13:03:33.856Z,82.60
2018-06-08T13:06:02.728Z,68.00
2018-06-08T13:08:31.689Z,66.80
2018-06-08T13:11:00.569Z,73.20
2018-06-08T13:13:29.521Z,76.80
2018-06-08T13:15:58.385Z,78.80
2018-06-08T13:18:27.251Z,80.50
2018-06-08T13:20:56.165Z,81.30
2018-06-08T13:23:25.123Z,78.20
2018-06-08T13:25:54.140Z,71.70
2018-06-08T13:28:23.058Z,77.60
2018-06-08T13:30:52.640Z,80.80
2018-06-08T13:33:21.812Z,66.00
2018-06-08T13:35:50.905Z,62.10
2018-06-08T13:38:20.089Z,63.80
2018-06-08T13:40:49.409Z,58.00
2018-06-08T13:43:19.826Z,76.50
2018-06-08T13:45:49.025Z,72.50
2018-06-08T13:48:18.106Z,59.00
2018-06-08T13:50:47.454Z,55.50
2018-06-08T13:53:16.823Z,59.80
2018-06-08T13:55:46.182Z,55.80
2018-06-08T13:58:15.345Z,71.90
2018-06-08T14:00:44.670Z,73.30
2018-06-08T14:05:42.767Z,56.60
2018-06-08T14:08:13.324Z,67.50
2018-06-08T14:10:42.430Z,53.60
2018-06-08T14:15:40.634Z,69.40
2018-06-08T14:18:09.590Z,71.40
2018-06-08T14:20:40.193Z,62.30
2018-06-08T14:23:09.190Z,54.60
2018-06-08T14:25:38.091Z,54.40
2018-06-08T14:28:07.146Z,65.50
2018-06-08T14:30:36.024Z,59.30
2018-06-08T14:33:04.951Z,56.40
2018-06-08T14:35:33.965Z,56.20
2018-06-08T14:38:02.912Z,68.50
2018-06-08T14:40:31.745Z,73.60
2018-06-08T14:43:00.780Z,76.30
2018-06-08T14:45:29.764Z,75.70
2018-06-08T14:47:58.560Z,79.30
2018-06-08T14:50:27.468Z,65.20
2018-06-08T14:52:57.977Z,74.40
2018-06-08T14:55:26.937Z,60.60
2018-06-08T14:57:55.976Z,63.30
2018-06-08T15:00:24.893Z,76.40
2018-06-08T15:02:54.197Z,79.10
2018-06-08T15:05:23.175Z,80.30
2018-06-08T15:07:52.264Z,68.10
2018-06-08T15:10:21.333Z,72.40
2018-06-08T15:12:50.347Z,76.80
2018-06-08T15:15:19.745Z,67.30
2018-06-08T15:17:48.857Z,78.40
2018-06-08T15:20:18.097Z,80.20
2018-06-08T15:22:47.338Z,80.10
2018-06-08T15:25:16.356Z,80.80
2018-06-08T15:27:45.509Z,72.20
2018-06-08T15:30:14.682Z,75.80
2018-06-08T15:32:43.964Z,77.60
2018-06-08T15:35:13.329Z,79.10
2018-06-08T15:37:42.549Z,80.40
2018-06-08T15:40:11.757Z,81.00
2018-06-08T15:42:41.087Z,75.40
2018-06-08T15:45:11.448Z,79.30
2018-06-08T15:47:40.893Z,80.00
2018-06-08T15:50:10.036Z,74.00
2018-06-08T15:52:39.153Z,79.60
2018-06-08T15:55:08.013Z,80.00
2018-06-08T15:57:36.909Z,81.00
2018-06-08T16:00:05.825Z,81.00
2018-06-08T16:02:35.804Z,80.40
2018-06-08T16:05:04.740Z,76.40
2018-06-08T16:07:33.636Z,75.90
2018-06-08T16:10:02.494Z,78.80
2018-06-08T16:12:31.437Z,79.30
2018-06-08T16:15:00.293Z,80.80
2018-06-08T16:17:29.161Z,79.90
2018-06-08T16:19:57.998Z,80.20
2018-06-08T16:22:26.997Z,80.70
2018-06-08T16:24:55.796Z,80.40
2018-06-08T16:27:24.666Z,80.80
2018-06-08T16:29:53.516Z,81.40
2018-06-08T16:32:22.419Z,81.20
2018-06-08T16:34:51.324Z,80.50
2018-06-08T16:37:20.318Z,81.10
2018-06-08T16:39:49.300Z,79.60
2018-06-08T16:42:18.311Z,81.80
2018-06-08T16:44:47.320Z,80.80
2018-06-08T16:47:16.297Z,77.60
2018-06-08T16:49:45.364Z,79.70
2018-06-08T16:52:14.346Z,81.90
2018-06-08T16:54:43.313Z,80.70
2018-06-08T16:57:12.413Z,82.60
2018-06-08T16:59:41.487Z,82.90
2018-06-08T17:02:10.513Z,81.80
2018-06-08T17:04:40.064Z,83.30
2018-06-08T17:07:08.949Z,83.20
2018-06-08T17:09:37.854Z,83.20
2018-06-08T17:12:06.732Z,83.10
2018-06-08T17:14:35.566Z,83.60
2018-06-08T17:17:04.413Z,83.60
2018-06-08T17:19:33.301Z,82.90
2018-06-08T17:22:02.161Z,82.00
2018-06-08T17:24:30.996Z,82.60
2018-06-08T17:26:59.854Z,82.80
2018-06-08T17:29:28.730Z,83.00
2018-06-08T17:31:57.565Z,83.10
2018-06-08T17:34:26.434Z,83.00
2018-06-08T17:36:55.335Z,83.10
2018-06-08T17:39:24.212Z,83.20
2018-06-08T17:41:53.133Z,82.90
2018-06-08T17:44:22.004Z,83.10
2018-06-08T17:46:50.893Z,83.40
2018-06-08T17:49:19.978Z,82.70
2018-06-08T17:51:48.896Z,83.40
2018-06-08T17:54:17.878Z,83.60
2018-06-08T17:56:46.838Z,83.60
2018-06-08T17:59:15.858Z,84.00
2018-06-08T18:01:44.825Z,82.90
2018-06-08T18:04:13.839Z,83.00
2018-06-08T18:06:42.897Z,82.40
2018-06-08T18:09:11.899Z,81.90
2018-06-08T18:11:40.938Z,82.10
2018-06-08T18:14:09.870Z,81.90
2018-06-08T18:16:38.728Z,81.10
2018-06-08T18:19:07.585Z,78.40
2018-06-08T18:21:36.453Z,80.90
2018-06-08T18:24:05.400Z,81.00
2018-06-08T18:26:34.326Z,82.20
2018-06-08T18:29:03.197Z,82.40
2018-06-08T18:31:32.046Z,81.80
2018-06-08T18:34:00.963Z,81.30
2018-06-08T18:36:29.817Z,81.30
2018-06-08T18:38:58.685Z,81.30
2018-06-08T18:41:27.561Z,81.90
2018-06-08T18:43:56.444Z,81.90
2018-06-08T18:46:25.321Z,80.90
2018-06-08T18:48:54.168Z,79.90
2018-06-08T18:51:23.020Z,82.50
2018-06-08T18:53:51.890Z,82.60
2018-06-08T18:56:20.762Z,82.80
2018-06-08T18:58:49.915Z,80.70
2018-06-08T19:01:18.974Z,81.30
2018-06-08T19:03:47.861Z,79.80
2018-06-08T19:06:16.926Z,82.00
2018-06-08T19:08:45.901Z,81.80
2018-06-08T19:11:14.915Z,81.30
2018-06-08T19:13:43.892Z,78.10
2018-06-08T19:16:12.977Z,77.50
2018-06-08T19:18:42.084Z,77.40
2018-06-08T19:21:11.466Z,78.70
2018-06-08T19:23:40.513Z,79.00
2018-06-08T19:26:09.554Z,77.10
2018-06-08T19:28:38.425Z,78.10
2018-06-08T19:31:07.424Z,79.20
2018-06-08T19:33:36.386Z,78.40
2018-06-08T19:36:05.225Z,80.30
2018-06-08T19:38:34.186Z,80.30
2018-06-08T19:41:03.037Z,79.80
2018-06-08T19:43:31.880Z,78.70
2018-06-08T19:46:00.748Z,77.90
2018-06-08T19:48:29.636Z,80.10
2018-06-08T19:50:58.503Z,79.70
2018-06-08T19:53:27.583Z,79.40
2018-06-08T19:55:56.465Z,80.10
2018-06-08T19:58:25.365Z,80.50
2018-06-08T20:00:54.213Z,81.20
2018-06-08T20:03:23.078Z,81.70
2018-06-08T20:05:51.954Z,81.60
2018-06-08T20:08:20.800Z,81.60
2018-06-08T20:10:49.669Z,80.90
2018-06-08T20:13:18.640Z,77.90
2018-06-08T20:15:47.624Z,78.40
2018-06-08T20:18:16.575Z,79.80
2018-06-08T20:20:45.505Z,80.80
2018-06-08T20:23:14.451Z,75.70
2018-06-08T20:25:43.577Z,78.20
2018-06-08T20:28:12.657Z,79.60
2018-06-08T20:30:41.724Z,80.50
2018-06-08T20:33:10.642Z,80.60
2018-06-08T20:35:39.529Z,81.50
2018-06-08T20:38:08.392Z,80.20
2018-06-08T20:40:37.268Z,81.30
2018-06-08T20:43:06.205Z,81.30
2018-06-08T20:45:35.081Z,80.80
2018-06-08T20:48:03.925Z,77.20
2018-06-08T20:50:32.802Z,81.00
2018-06-08T20:53:01.653Z,78.10
2018-06-08T20:55:30.517Z,78.10
2018-06-08T20:58:00.496Z,77.00
2018-06-08T21:00:29.364Z,74.80
2018-06-08T21:02:58.236Z,78.20
2018-06-08T21:05:27.115Z,79.20
2018-06-08T21:07:55.984Z,79.00
2018-06-08T21:10:24.852Z,75.70
2018-06-08T21:12:53.756Z,74.10
2018-06-08T21:15:22.664Z,73.80
2018-06-08T21:17:51.553Z,72.80
2018-06-08T21:20:20.610Z,78.90
2018-06-08T21:22:49.537Z,74.90
2018-06-08T21:25:18.545Z,73.80
2018-06-08T21:27:47.528Z,78.00
2018-06-08T21:30:16.513Z,73.00
2018-06-08T21:32:45.697Z,72.50
2018-06-08T21:35:14.704Z,76.00
2018-06-08T21:37:43.773Z,75.30
2018-06-08T21:40:12.859Z,75.10
2018-06-08T21:42:41.954Z,78.50
2018-06-08T21:45:11.042Z,73.90
2018-06-08T21:47:40.075Z,73.70
2018-06-08T21:50:09.045Z,73.70
2018-06-08T21:52:37.869Z,74.00
2018-06-08T21:55:06.746Z,71.70
2018-06-08T21:57:35.612Z,73.70
2018-06-08T22:00:05.658Z,79.10
2018-06-08T22:02:34.561Z,74.70
2018-06-08T22:05:03.457Z,73.30
2018-06-08T22:07:32.370Z,79.70
2018-06-08T22:10:01.221Z,75.70
2018-06-08T22:12:30.085Z,73.30
2018-06-08T22:14:58.941Z,77.90
2018-06-08T22:17:27.783Z,73.60
2018-06-08T22:19:56.651Z,72.70
2018-06-08T22:22:25.509Z,78.30
2018-06-08T22:24:54.356Z,79.60
2018-06-08T22:27:23.218Z,79.30
2018-06-08T22:29:52.149Z,77.30
2018-06-08T22:32:21.186Z,73.60
2018-06-08T22:34:50.050Z,79.00
2018-06-08T22:37:19.010Z,74.80
2018-06-08T22:39:47.968Z,73.40
2018-06-08T22:42:16.994Z,75.80
2018-06-08T22:44:45.903Z,75.30
2018-06-08T22:47:14.861Z,73.00
2018-06-08T22:49:43.892Z,73.00
2018-06-08T22:52:12.926Z,72.90
2018-06-08T22:54:41.915Z,72.70
2018-06-08T22:57:10.862Z,73.00
2018-06-08T22:59:39.912Z,73.60
2018-06-08T23:02:08.846Z,74.00
2018-06-08T23:04:37.724Z,73.20
2018-06-08T23:07:06.617Z,73.00
2018-06-08T23:09:35.453Z,72.90
2018-06-08T23:12:04.302Z,73.00
2018-06-08T23:14:33.178Z,73.10
2018-06-08T23:17:02.098Z,73.30
2018-06-08T23:19:30.883Z,73.60
2018-06-08T23:21:59.745Z,73.60
2018-06-08T23:24:28.632Z,73.50
2018-06-08T23:26:57.544Z,73.80
2018-06-08T23:29:26.691Z,74.00
2018-06-08T23:31:55.530Z,74.20
2018-06-08T23:34:24.375Z,75.20
2018-06-08T23:36:59.001Z,74.30
2018-06-08T23:39:27.869Z,74.30
2018-06-08T23:41:56.722Z,74.40
2018-06-08T23:44:25.600Z,74.60
2018-06-08T23:46:54.472Z,74.70
2018-06-08T23:49:23.365Z,74.70
2018-06-08T23:51:52.244Z,74.90
2018-06-08T23:54:21.132Z,74.90
2018-06-08T23:56:50.073Z,75.60
2018-06-08T23:59:19.222Z,75.10
